Terminal Aerodrome Forecast
Issued by NWS Billings, MT

Home | Current Version | Previous Version | Graphics & Text | Print | Product List | Glossary On
Versions: 1 2 3 4 5 6 7 8 9 10 11 12 13 14 15 16 17 18 19 20 21 22 23 24 25 26
000
FTUS45 KBYZ 222105 AAA
TAFMLS
TAF AMD
KMLS 222105Z 2221/2318 08007KT P6SM VCTS BKN100CB
     FM230000 08009KT P6SM VCTS SCT070CB BKN120
     FM230600 11010KT P6SM SCT250=

USA.gov is the U.S. government's official web portal to all federal, state and local government web resources and services.